Secaucus, New Jersey
Current Conditions -  °F | °C
As of 10:58 AM on Thursday 27 Nov 2014 (Local Time) from KTEB Reporting Station
Light Snow Light Snow  
Wind Chill: 32°   Ceiling: 2100
Heat Index: 36°   Visibility: 2mi
Dew Point: 30°   Wind: 5mph
Humidity: 81%   Direction: 310°NW
Pressure: 30"   Gusts: NA
Location:  40.79°N, 74.05°W
Report Text: KTEB 271558Z 31004KT 2SM -SN BR FEW006 BKN021 OVC035 02/M01 A3000 RMK AO2 P0000 $
Loading
Personal Weather Stations






























Interactive Weather Map New forecast layout! Learn more

10-Day Weather Forecast

Advertisements
Track Severe Weather on mobile